Covington, Louisiana
Current Conditions -  °F | °C
As of 10:53 AM on Wednesday 26 Nov 2014 (Local Time) from KASD Reporting Station
Clear Clear  
Wind Chill: 58°   Ceiling: Unl
Heat Index: 58°   Visibility: 10mi
Dew Point: 31°   Wind: 7mph
Humidity: 36%   Direction: 180°S
Pressure: 30.26"   Gusts: NA
Location:  30.48°N, 90.09°W
Report Text: KASD 261653Z AUTO 18006KT 10SM CLR 14/M01 A3026 RMK AO2 SLP245 T01441006
Loading
Personal Weather Stations






























Interactive Weather Map New forecast layout! Learn more

10-Day Weather Forecast

Advertisements
Track Severe Weather on mobile